sensor_id;sensor_type;location;lat;lon;timestamp;P1;durP1;ratioP1;P2;durP2;ratioP2
28266;SDS011;15525;45.568;5.448;2023-04-03T00:00:12;9.02;;;5.03;;
28266;SDS011;15525;45.568;5.448;2023-04-03T00:02:38;7.43;;;4.60;;
28266;SDS011;15525;45.568;5.448;2023-04-03T00:05:05;6.93;;;4.35;;
28266;SDS011;15525;45.568;5.448;2023-04-03T00:07:31;8.00;;;4.53;;
28266;SDS011;15525;45.568;5.448;2023-04-03T00:09:56;7.18;;;4.55;;
28266;SDS011;15525;45.568;5.448;2023-04-03T00:12:22;8.23;;;4.93;;
28266;SDS011;15525;45.568;5.448;2023-04-03T00:14:47;7.63;;;4.78;;
28266;SDS011;15525;45.568;5.448;2023-04-03T00:17:13;7.35;;;4.65;;
28266;SDS011;15525;45.568;5.448;2023-04-03T00:19:38;6.43;;;4.30;;
28266;SDS011;15525;45.568;5.448;2023-04-03T00:22:03;7.82;;;4.47;;
28266;SDS011;15525;45.568;5.448;2023-04-03T00:24:29;6.63;;;4.03;;
28266;SDS011;15525;45.568;5.448;2023-04-03T00:26:54;7.82;;;4.10;;
28266;SDS011;15525;45.568;5.448;2023-04-03T00:29:20;7.18;;;4.40;;
28266;SDS011;15525;45.568;5.448;2023-04-03T00:31:45;5.93;;;3.95;;
28266;SDS011;15525;45.568;5.448;2023-04-03T00:34:11;6.03;;;4.10;;
28266;SDS011;15525;45.568;5.448;2023-04-03T00:36:37;5.55;;;3.72;;
28266;SDS011;15525;45.568;5.448;2023-04-03T00:39:02;8.18;;;3.53;;
28266;SDS011;15525;45.568;5.448;2023-04-03T00:41:28;6.60;;;3.92;;
28266;SDS011;15525;45.568;5.448;2023-04-03T00:43:53;5.97;;;3.90;;
28266;SDS011;15525;45.568;5.448;2023-04-03T00:46:19;6.53;;;4.05;;
28266;SDS011;15525;45.568;5.448;2023-04-03T00:48:45;5.97;;;3.78;;
28266;SDS011;15525;45.568;5.448;2023-04-03T00:51:15;4.75;;;3.63;;
28266;SDS011;15525;45.568;5.448;2023-04-03T00:53:49;4.80;;;3.15;;
28266;SDS011;15525;45.568;5.448;2023-04-03T00:56:19;5.97;;;3.65;;
28266;SDS011;15525;45.568;5.448;2023-04-03T00:58:49;4.95;;;3.28;;
28266;SDS011;15525;45.568;5.448;2023-04-03T01:01:25;7.75;;;4.10;;
28266;SDS011;15525;45.568;5.448;2023-04-03T01:03:52;7.03;;;3.88;;
28266;SDS011;15525;45.568;5.448;2023-04-03T01:06:21;7.10;;;3.95;;
28266;SDS011;15525;45.568;5.448;2023-04-03T01:08:51;5.43;;;3.58;;
28266;SDS011;15525;45.568;5.448;2023-04-03T01:11:18;7.40;;;4.30;;
28266;SDS011;15525;45.568;5.448;2023-04-03T01:13:43;7.03;;;4.32;;
28266;SDS011;15525;45.568;5.448;2023-04-03T01:16:09;6.22;;;3.60;;
28266;SDS011;15525;45.568;5.448;2023-04-03T01:18:36;6.80;;;4.30;;
28266;SDS011;15525;45.568;5.448;2023-04-03T01:21:10;7.30;;;4.57;;
28266;SDS011;15525;45.568;5.448;2023-04-03T01:26:13;5.97;;;3.92;;
28266;SDS011;15525;45.568;5.448;2023-04-03T01:28:39;8.05;;;4.32;;
28266;SDS011;15525;45.568;5.448;2023-04-03T01:33:58;6.85;;;3.75;;
28266;SDS011;15525;45.568;5.448;2023-04-03T01:36:25;5.63;;;3.75;;
28266;SDS011;15525;45.568;5.448;2023-04-03T01:38:53;6.72;;;3.72;;
28266;SDS011;15525;45.568;5.448;2023-04-03T01:41:19;5.25;;;3.83;;
28266;SDS011;15525;45.568;5.448;2023-04-03T01:43:46;7.13;;;4.28;;
28266;SDS011;15525;45.568;5.448;2023-04-03T01:46:12;7.45;;;4.75;;
28266;SDS011;15525;45.568;5.448;2023-04-03T01:48:37;7.40;;;4.45;;
28266;SDS011;15525;45.568;5.448;2023-04-03T01:51:03;7.30;;;5.30;;
28266;SDS011;15525;45.568;5.448;2023-04-03T01:53:29;8.80;;;4.95;;
28266;SDS011;15525;45.568;5.448;2023-04-03T01:55:54;7.90;;;4.60;;
28266;SDS011;15525;45.568;5.448;2023-04-03T01:58:20;8.65;;;4.97;;
28266;SDS011;15525;45.568;5.448;2023-04-03T02:00:45;7.22;;;4.68;;
28266;SDS011;15525;45.568;5.448;2023-04-03T02:03:10;8.02;;;4.80;;
28266;SDS011;15525;45.568;5.448;2023-04-03T02:05:36;8.27;;;4.15;;
28266;SDS011;15525;45.568;5.448;2023-04-03T02:08:01;6.45;;;4.20;;
28266;SDS011;15525;45.568;5.448;2023-04-03T02:10:27;7.07;;;4.47;;
28266;SDS011;15525;45.568;5.448;2023-04-03T02:12:52;7.15;;;4.63;;
28266;SDS011;15525;45.568;5.448;2023-04-03T02:15:18;7.57;;;4.50;;
28266;SDS011;15525;45.568;5.448;2023-04-03T02:17:43;7.95;;;4.35;;
28266;SDS011;15525;45.568;5.448;2023-04-03T02:20:09;7.18;;;4.35;;
28266;SDS011;15525;45.568;5.448;2023-04-03T02:22:35;6.72;;;4.10;;
28266;SDS011;15525;45.568;5.448;2023-04-03T02:25:00;8.57;;;4.90;;
28266;SDS011;15525;45.568;5.448;2023-04-03T02:27:26;6.68;;;4.18;;
28266;SDS011;15525;45.568;5.448;2023-04-03T02:29:52;6.55;;;4.18;;
28266;SDS011;15525;45.568;5.448;2023-04-03T02:32:17;6.78;;;4.50;;
28266;SDS011;15525;45.568;5.448;2023-04-03T02:34:43;9.23;;;4.65;;
28266;SDS011;15525;45.568;5.448;2023-04-03T02:37:08;7.38;;;4.90;;
28266;SDS011;15525;45.568;5.448;2023-04-03T02:39:34;6.50;;;4.22;;
28266;SDS011;15525;45.568;5.448;2023-04-03T02:41:59;7.57;;;4.57;;
28266;SDS011;15525;45.568;5.448;2023-04-03T02:44:25;7.25;;;4.32;;
28266;SDS011;15525;45.568;5.448;2023-04-03T02:46:50;8.32;;;4.70;;
28266;SDS011;15525;45.568;5.448;2023-04-03T02:49:16;8.52;;;4.57;;
28266;SDS011;15525;45.568;5.448;2023-04-03T02:51:41;6.78;;;4.40;;
28266;SDS011;15525;45.568;5.448;2023-04-03T02:54:07;7.32;;;4.50;;
28266;SDS011;15525;45.568;5.448;2023-04-03T02:56:32;7.35;;;4.47;;
28266;SDS011;15525;45.568;5.448;2023-04-03T02:58:58;7.60;;;4.82;;
28266;SDS011;15525;45.568;5.448;2023-04-03T03:01:24;6.80;;;4.50;;
28266;SDS011;15525;45.568;5.448;2023-04-03T03:03:49;7.22;;;4.28;;
28266;SDS011;15525;45.568;5.448;2023-04-03T03:06:15;7.05;;;4.25;;
28266;SDS011;15525;45.568;5.448;2023-04-03T03:08:42;6.90;;;4.40;;
28266;SDS011;15525;45.568;5.448;2023-04-03T03:11:08;9.52;;;6.57;;
28266;SDS011;15525;45.568;5.448;2023-04-03T03:13:34;7.40;;;4.82;;
28266;SDS011;15525;45.568;5.448;2023-04-03T03:16:00;7.75;;;4.47;;
28266;SDS011;15525;45.568;5.448;2023-04-03T03:18:26;7.75;;;4.68;;
28266;SDS011;15525;45.568;5.448;2023-04-03T03:20:53;7.90;;;5.13;;
28266;SDS011;15525;45.568;5.448;2023-04-03T03:23:19;7.82;;;4.60;;
28266;SDS011;15525;45.568;5.448;2023-04-03T03:25:46;7.50;;;4.28;;
28266;SDS011;15525;45.568;5.448;2023-04-03T03:28:11;7.10;;;4.78;;
28266;SDS011;15525;45.568;5.448;2023-04-03T03:30:37;6.63;;;4.45;;
28266;SDS011;15525;45.568;5.448;2023-04-03T03:33:02;6.57;;;4.28;;
28266;SDS011;15525;45.568;5.448;2023-04-03T03:35:28;8.82;;;4.68;;
28266;SDS011;15525;45.568;5.448;2023-04-03T03:37:53;6.90;;;4.28;;
28266;SDS011;15525;45.568;5.448;2023-04-03T03:40:19;6.57;;;4.20;;
28266;SDS011;15525;45.568;5.448;2023-04-03T03:42:44;8.48;;;4.65;;
28266;SDS011;15525;45.568;5.448;2023-04-03T03:45:10;8.15;;;4.38;;
28266;SDS011;15525;45.568;5.448;2023-04-03T03:47:35;7.38;;;4.38;;
28266;SDS011;15525;45.568;5.448;2023-04-03T03:50:01;7.07;;;4.35;;
28266;SDS011;15525;45.568;5.448;2023-04-03T03:52:27;8.48;;;5.30;;
28266;SDS011;15525;45.568;5.448;2023-04-03T03:54:52;8.32;;;4.97;;
28266;SDS011;15525;45.568;5.448;2023-04-03T03:57:18;7.05;;;4.68;;
28266;SDS011;15525;45.568;5.448;2023-04-03T03:59:43;7.55;;;5.07;;
28266;SDS011;15525;45.568;5.448;2023-04-03T04:02:09;7.93;;;5.03;;
28266;SDS011;15525;45.568;5.448;2023-04-03T04:04:36;8.60;;;5.50;;
28266;SDS011;15525;45.568;5.448;2023-04-03T04:07:02;7.40;;;4.72;;
28266;SDS011;15525;45.568;5.448;2023-04-03T04:09:28;9.52;;;5.25;;
28266;SDS011;15525;45.568;5.448;2023-04-03T04:11:53;8.60;;;5.57;;
28266;SDS011;15525;45.568;5.448;2023-04-03T04:14:18;9.68;;;5.35;;
28266;SDS011;15525;45.568;5.448;2023-04-03T04:16:45;8.25;;;5.10;;
28266;SDS011;15525;45.568;5.448;2023-04-03T04:19:11;8.68;;;5.10;;
28266;SDS011;15525;45.568;5.448;2023-04-03T04:21:38;7.93;;;5.40;;
28266;SDS011;15525;45.568;5.448;2023-04-03T04:24:04;8.55;;;5.40;;
28266;SDS011;15525;45.568;5.448;2023-04-03T04:26:30;8.82;;;5.50;;
28266;SDS011;15525;45.568;5.448;2023-04-03T04:28:56;8.63;;;5.30;;
28266;SDS011;15525;45.568;5.448;2023-04-03T04:31:21;9.70;;;5.50;;
28266;SDS011;15525;45.568;5.448;2023-04-03T04:33:47;8.43;;;5.57;;
28266;SDS011;15525;45.568;5.448;2023-04-03T04:36:12;10.35;;;5.32;;
28266;SDS011;15525;45.568;5.448;2023-04-03T04:38:39;9.98;;;5.88;;
28266;SDS011;15525;45.568;5.448;2023-04-03T04:41:05;9.55;;;5.38;;
28266;SDS011;15525;45.568;5.448;2023-04-03T04:43:30;10.98;;;6.30;;
28266;SDS011;15525;45.568;5.448;2023-04-03T04:46:08;10.40;;;6.03;;
28266;SDS011;15525;45.568;5.448;2023-04-03T04:48:36;10.40;;;5.80;;
28266;SDS011;15525;45.568;5.448;2023-04-03T04:51:02;9.80;;;5.93;;
28266;SDS011;15525;45.568;5.448;2023-04-03T04:53:28;10.23;;;5.75;;
28266;SDS011;15525;45.568;5.448;2023-04-03T04:55:54;10.45;;;6.00;;
28266;SDS011;15525;45.568;5.448;2023-04-03T04:58:20;9.38;;;6.10;;
28266;SDS011;15525;45.568;5.448;2023-04-03T05:00:46;10.75;;;5.93;;
28266;SDS011;15525;45.568;5.448;2023-04-03T05:03:11;9.68;;;5.97;;
28266;SDS011;15525;45.568;5.448;2023-04-03T05:05:37;10.20;;;6.35;;
28266;SDS011;15525;45.568;5.448;2023-04-03T05:08:03;13.40;;;6.68;;
28266;SDS011;15525;45.568;5.448;2023-04-03T05:10:28;10.07;;;5.68;;
28266;SDS011;15525;45.568;5.448;2023-04-03T05:12:54;10.52;;;5.72;;
28266;SDS011;15525;45.568;5.448;2023-04-03T05:15:19;8.00;;;5.43;;
28266;SDS011;15525;45.568;5.448;2023-04-03T05:17:45;8.85;;;5.65;;
28266;SDS011;15525;45.568;5.448;2023-04-03T05:20:11;9.43;;;5.90;;
28266;SDS011;15525;45.568;5.448;2023-04-03T05:22:37;9.40;;;5.78;;
28266;SDS011;15525;45.568;5.448;2023-04-03T05:25:02;8.82;;;5.60;;
28266;SDS011;15525;45.568;5.448;2023-04-03T05:27:29;9.50;;;5.93;;
28266;SDS011;15525;45.568;5.448;2023-04-03T05:29:54;8.48;;;5.60;;
28266;SDS011;15525;45.568;5.448;2023-04-03T05:32:21;9.15;;;6.03;;
28266;SDS011;15525;45.568;5.448;2023-04-03T05:34:47;9.55;;;5.82;;
28266;SDS011;15525;45.568;5.448;2023-04-03T05:37:12;11.20;;;5.95;;
28266;SDS011;15525;45.568;5.448;2023-04-03T05:39:38;8.15;;;5.63;;
28266;SDS011;15525;45.568;5.448;2023-04-03T05:42:06;8.40;;;5.53;;
28266;SDS011;15525;45.568;5.448;2023-04-03T05:44:32;7.15;;;5.07;;
28266;SDS011;15525;45.568;5.448;2023-04-03T05:46:57;7.90;;;5.60;;
28266;SDS011;15525;45.568;5.448;2023-04-03T05:49:23;8.35;;;5.50;;
28266;SDS011;15525;45.568;5.448;2023-04-03T05:51:48;8.40;;;5.55;;
28266;SDS011;15525;45.568;5.448;2023-04-03T05:54:24;7.90;;;5.63;;
28266;SDS011;15525;45.568;5.448;2023-04-03T05:56:51;7.38;;;4.75;;
28266;SDS011;15525;45.568;5.448;2023-04-03T05:59:17;7.45;;;5.00;;
28266;SDS011;15525;45.568;5.448;2023-04-03T06:01:44;6.82;;;4.78;;
28266;SDS011;15525;45.568;5.448;2023-04-03T06:04:10;7.22;;;4.72;;
28266;SDS011;15525;45.568;5.448;2023-04-03T06:06:49;8.25;;;5.40;;
28266;SDS011;15525;45.568;5.448;2023-04-03T06:09:17;7.65;;;4.97;;
28266;SDS011;15525;45.568;5.448;2023-04-03T06:11:44;7.63;;;4.95;;
28266;SDS011;15525;45.568;5.448;2023-04-03T06:14:10;6.97;;;4.80;;
28266;SDS011;15525;45.568;5.448;2023-04-03T06:16:36;6.50;;;4.60;;
28266;SDS011;15525;45.568;5.448;2023-04-03T06:19:02;7.45;;;4.70;;
28266;SDS011;15525;45.568;5.448;2023-04-03T06:21:29;6.57;;;4.32;;
28266;SDS011;15525;45.568;5.448;2023-04-03T06:23:55;5.53;;;4.18;;
28266;SDS011;15525;45.568;5.448;2023-04-03T06:26:20;5.53;;;4.20;;
28266;SDS011;15525;45.568;5.448;2023-04-03T06:28:46;6.93;;;4.50;;
28266;SDS011;15525;45.568;5.448;2023-04-03T06:31:11;7.53;;;4.47;;
28266;SDS011;15525;45.568;5.448;2023-04-03T06:33:36;6.72;;;4.25;;
28266;SDS011;15525;45.568;5.448;2023-04-03T06:36:03;6.25;;;4.32;;
28266;SDS011;15525;45.568;5.448;2023-04-03T06:38:30;7.03;;;4.30;;
28266;SDS011;15525;45.568;5.448;2023-04-03T06:40:56;6.80;;;4.55;;
28266;SDS011;15525;45.568;5.448;2023-04-03T06:43:22;6.10;;;4.35;;
28266;SDS011;15525;45.568;5.448;2023-04-03T06:45:47;6.53;;;4.50;;
28266;SDS011;15525;45.568;5.448;2023-04-03T06:48:13;6.57;;;4.68;;
28266;SDS011;15525;45.568;5.448;2023-04-03T06:50:38;6.35;;;4.53;;
28266;SDS011;15525;45.568;5.448;2023-04-03T06:53:04;8.13;;;4.50;;
28266;SDS011;15525;45.568;5.448;2023-04-03T06:55:29;6.45;;;4.57;;
28266;SDS011;15525;45.568;5.448;2023-04-03T06:57:55;7.63;;;4.68;;
28266;SDS011;15525;45.568;5.448;2023-04-03T07:00:20;7.43;;;4.85;;
28266;SDS011;15525;45.568;5.448;2023-04-03T07:02:46;11.02;;;5.30;;
28266;SDS011;15525;45.568;5.448;2023-04-03T07:05:11;6.18;;;4.35;;
28266;SDS011;15525;45.568;5.448;2023-04-03T07:07:38;6.97;;;4.75;;
28266;SDS011;15525;45.568;5.448;2023-04-03T07:10:04;5.88;;;4.32;;
28266;SDS011;15525;45.568;5.448;2023-04-03T07:12:31;7.38;;;4.97;;
28266;SDS011;15525;45.568;5.448;2023-04-03T07:14:56;7.80;;;5.07;;
28266;SDS011;15525;45.568;5.448;2023-04-03T07:17:22;8.13;;;5.10;;
28266;SDS011;15525;45.568;5.448;2023-04-03T07:19:48;7.38;;;4.97;;
28266;SDS011;15525;45.568;5.448;2023-04-03T07:22:13;9.93;;;5.40;;
28266;SDS011;15525;45.568;5.448;2023-04-03T07:24:39;6.75;;;4.93;;
28266;SDS011;15525;45.568;5.448;2023-04-03T07:27:06;8.45;;;5.30;;
28266;SDS011;15525;45.568;5.448;2023-04-03T07:29:33;6.80;;;4.57;;
28266;SDS011;15525;45.568;5.448;2023-04-03T07:31:59;7.30;;;4.90;;
28266;SDS011;15525;45.568;5.448;2023-04-03T07:34:25;6.75;;;4.57;;
28266;SDS011;15525;45.568;5.448;2023-04-03T07:36:51;7.38;;;5.18;;
28266;SDS011;15525;45.568;5.448;2023-04-03T07:39:16;8.02;;;4.82;;
28266;SDS011;15525;45.568;5.448;2023-04-03T07:41:42;7.40;;;4.88;;
28266;SDS011;15525;45.568;5.448;2023-04-03T07:44:07;7.00;;;4.70;;
28266;SDS011;15525;45.568;5.448;2023-04-03T07:46:35;7.93;;;5.22;;
28266;SDS011;15525;45.568;5.448;2023-04-03T07:49:00;7.55;;;5.40;;
28266;SDS011;15525;45.568;5.448;2023-04-03T07:51:26;10.68;;;5.47;;
28266;SDS011;15525;45.568;5.448;2023-04-03T07:53:53;8.10;;;5.35;;
28266;SDS011;15525;45.568;5.448;2023-04-03T07:56:18;10.23;;;5.78;;
28266;SDS011;15525;45.568;5.448;2023-04-03T07:58:43;9.07;;;5.78;;
28266;SDS011;15525;45.568;5.448;2023-04-03T08:01:10;10.57;;;6.28;;
28266;SDS011;15525;45.568;5.448;2023-04-03T08:03:35;11.15;;;6.50;;
28266;SDS011;15525;45.568;5.448;2023-04-03T08:06:03;11.13;;;7.00;;
28266;SDS011;15525;45.568;5.448;2023-04-03T08:08:30;10.60;;;7.35;;
28266;SDS011;15525;45.568;5.448;2023-04-03T08:10:58;13.32;;;7.82;;
28266;SDS011;15525;45.568;5.448;2023-04-03T08:13:25;12.85;;;7.57;;
28266;SDS011;15525;45.568;5.448;2023-04-03T08:15:51;12.02;;;7.60;;
28266;SDS011;15525;45.568;5.448;2023-04-03T08:18:17;13.73;;;8.20;;
28266;SDS011;15525;45.568;5.448;2023-04-03T08:20:43;12.63;;;8.35;;
28266;SDS011;15525;45.568;5.448;2023-04-03T08:23:10;14.73;;;8.38;;
28266;SDS011;15525;45.568;5.448;2023-04-03T08:25:39;15.63;;;9.13;;
28266;SDS011;15525;45.568;5.448;2023-04-03T08:28:06;14.27;;;8.63;;
28266;SDS011;15525;45.568;5.448;2023-04-03T08:30:32;12.30;;;8.23;;
28266;SDS011;15525;45.568;5.448;2023-04-03T08:33:00;15.00;;;9.15;;
28266;SDS011;15525;45.568;5.448;2023-04-03T08:35:26;15.35;;;8.75;;
28266;SDS011;15525;45.568;5.448;2023-04-03T08:37:51;14.32;;;8.95;;
28266;SDS011;15525;45.568;5.448;2023-04-03T08:40:17;15.60;;;9.27;;
28266;SDS011;15525;45.568;5.448;2023-04-03T08:42:46;14.65;;;8.88;;
28266;SDS011;15525;45.568;5.448;2023-04-03T08:48:04;16.60;;;9.55;;
28266;SDS011;15525;45.568;5.448;2023-04-03T08:50:38;16.80;;;10.30;;
28266;SDS011;15525;45.568;5.448;2023-04-03T08:53:11;16.90;;;9.95;;
28266;SDS011;15525;45.568;5.448;2023-04-03T08:55:50;17.88;;;10.60;;
28266;SDS011;15525;45.568;5.448;2023-04-03T09:01:03;17.88;;;10.23;;
28266;SDS011;15525;45.568;5.448;2023-04-03T09:03:32;15.02;;;9.30;;
28266;SDS011;15525;45.568;5.448;2023-04-03T09:06:04;15.68;;;9.63;;
28266;SDS011;15525;45.568;5.448;2023-04-03T09:14:18;15.20;;;9.15;;
28266;SDS011;15525;45.568;5.448;2023-04-03T09:20:30;15.00;;;9.48;;
28266;SDS011;15525;45.568;5.448;2023-04-03T09:26:17;13.45;;;9.07;;
28266;SDS011;15525;45.568;5.448;2023-04-03T09:28:46;13.35;;;8.95;;
28266;SDS011;15525;45.568;5.448;2023-04-03T09:31:22;13.63;;;9.18;;
28266;SDS011;15525;45.568;5.448;2023-04-03T09:33:50;12.55;;;8.30;;
28266;SDS011;15525;45.568;5.448;2023-04-03T09:39:13;11.75;;;8.10;;
28266;SDS011;15525;45.568;5.448;2023-04-03T09:41:39;13.05;;;8.07;;
28266;SDS011;15525;45.568;5.448;2023-04-03T09:44:17;11.63;;;7.85;;
28266;SDS011;15525;45.568;5.448;2023-04-03T09:46:47;11.05;;;8.18;;
28266;SDS011;15525;45.568;5.448;2023-04-03T09:49:14;12.18;;;7.88;;
28266;SDS011;15525;45.568;5.448;2023-04-03T09:51:39;12.07;;;8.57;;
28266;SDS011;15525;45.568;5.448;2023-04-03T09:57:12;13.15;;;7.97;;
28266;SDS011;15525;45.568;5.448;2023-04-03T09:59:41;12.20;;;7.80;;
28266;SDS011;15525;45.568;5.448;2023-04-03T10:04:41;13.10;;;8.30;;
28266;SDS011;15525;45.568;5.448;2023-04-03T10:07:26;10.75;;;7.72;;
28266;SDS011;15525;45.568;5.448;2023-04-03T10:09:59;10.05;;;7.20;;
28266;SDS011;15525;45.568;5.448;2023-04-03T10:12:26;12.85;;;8.07;;
28266;SDS011;15525;45.568;5.448;2023-04-03T10:19:53;12.43;;;7.97;;
28266;SDS011;15525;45.568;5.448;2023-04-03T10:28:20;12.35;;;8.77;;
28266;SDS011;15525;45.568;5.448;2023-04-03T10:33:44;12.85;;;8.52;;
28266;SDS011;15525;45.568;5.448;2023-04-03T10:36:27;13.18;;;8.45;;
28266;SDS011;15525;45.568;5.448;2023-04-03T10:45:00;14.15;;;8.10;;
28266;SDS011;15525;45.568;5.448;2023-04-03T10:53:17;13.63;;;9.23;;
28266;SDS011;15525;45.568;5.448;2023-04-03T10:58:32;13.88;;;8.45;;
28266;SDS011;15525;45.568;5.448;2023-04-03T11:01:02;15.07;;;8.85;;
28266;SDS011;15525;45.568;5.448;2023-04-03T11:03:41;14.90;;;9.45;;
28266;SDS011;15525;45.568;5.448;2023-04-03T11:06:13;14.60;;;9.30;;
28266;SDS011;15525;45.568;5.448;2023-04-03T11:11:17;12.25;;;8.77;;
28266;SDS011;15525;45.568;5.448;2023-04-03T11:13:52;13.95;;;8.45;;
28266;SDS011;15525;45.568;5.448;2023-04-03T11:16:23;15.33;;;9.20;;
28266;SDS011;15525;45.568;5.448;2023-04-03T11:21:37;14.25;;;9.68;;
28266;SDS011;15525;45.568;5.448;2023-04-03T11:24:10;15.20;;;10.02;;
28266;SDS011;15525;45.568;5.448;2023-04-03T11:26:42;17.33;;;10.15;;
28266;SDS011;15525;45.568;5.448;2023-04-03T11:29:10;15.90;;;10.20;;
28266;SDS011;15525;45.568;5.448;2023-04-03T11:31:58;15.90;;;10.70;;
28266;SDS011;15525;45.568;5.448;2023-04-03T11:40:04;16.77;;;10.23;;
28266;SDS011;15525;45.568;5.448;2023-04-03T11:42:55;15.93;;;10.18;;
28266;SDS011;15525;45.568;5.448;2023-04-03T11:45:50;17.88;;;11.02;;
28266;SDS011;15525;45.568;5.448;2023-04-03T11:50:56;16.35;;;10.32;;
28266;SDS011;15525;45.568;5.448;2023-04-03T11:53:32;14.20;;;10.13;;
28266;SDS011;15525;45.568;5.448;2023-04-03T11:56:01;15.63;;;9.85;;
28266;SDS011;15525;45.568;5.448;2023-04-03T11:59:14;15.02;;;9.70;;
28266;SDS011;15525;45.568;5.448;2023-04-03T12:04:22;13.68;;;9.98;;
28266;SDS011;15525;45.568;5.448;2023-04-03T12:06:50;13.38;;;9.23;;
28266;SDS011;15525;45.568;5.448;2023-04-03T12:09:33;12.23;;;8.60;;
28266;SDS011;15525;45.568;5.448;2023-04-03T12:12:29;10.77;;;8.52;;
28266;SDS011;15525;45.568;5.448;2023-04-03T12:17:44;10.38;;;8.40;;
28266;SDS011;15525;45.568;5.448;2023-04-03T12:23:23;15.57;;;9.20;;
28266;SDS011;15525;45.568;5.448;2023-04-03T12:25:51;13.10;;;9.48;;
28266;SDS011;15525;45.568;5.448;2023-04-03T12:28:17;15.38;;;8.98;;
28266;SDS011;15525;45.568;5.448;2023-04-03T12:30:42;13.93;;;9.98;;
28266;SDS011;15525;45.568;5.448;2023-04-03T12:36:07;13.52;;;9.10;;
28266;SDS011;15525;45.568;5.448;2023-04-03T12:38:49;12.35;;;9.02;;
28266;SDS011;15525;45.568;5.448;2023-04-03T12:46:42;11.25;;;8.65;;
28266;SDS011;15525;45.568;5.448;2023-04-03T12:49:52;12.02;;;8.60;;
28266;SDS011;15525;45.568;5.448;2023-04-03T12:54:44;12.57;;;9.27;;
28266;SDS011;15525;45.568;5.448;2023-04-03T12:59:49;14.05;;;8.68;;
28266;SDS011;15525;45.568;5.448;2023-04-03T13:02:22;12.25;;;8.15;;
28266;SDS011;15525;45.568;5.448;2023-04-03T13:04:50;11.52;;;8.93;;
28266;SDS011;15525;45.568;5.448;2023-04-03T13:07:25;10.50;;;8.07;;
28266;SDS011;15525;45.568;5.448;2023-04-03T13:09:56;12.43;;;8.38;;
28266;SDS011;15525;45.568;5.448;2023-04-03T13:12:23;11.68;;;8.50;;
28266;SDS011;15525;45.568;5.448;2023-04-03T13:14:56;12.55;;;8.75;;
28266;SDS011;15525;45.568;5.448;2023-04-03T13:17:24;12.38;;;8.65;;
28266;SDS011;15525;45.568;5.448;2023-04-03T13:19:50;11.70;;;8.85;;
28266;SDS011;15525;45.568;5.448;2023-04-03T13:22:28;12.07;;;8.93;;
28266;SDS011;15525;45.568;5.448;2023-04-03T13:25:05;11.13;;;8.13;;
28266;SDS011;15525;45.568;5.448;2023-04-03T13:27:34;12.07;;;8.60;;
28266;SDS011;15525;45.568;5.448;2023-04-03T13:30:00;10.65;;;8.05;;
28266;SDS011;15525;45.568;5.448;2023-04-03T13:32:28;13.05;;;8.40;;
28266;SDS011;15525;45.568;5.448;2023-04-03T13:34:56;11.27;;;8.02;;
28266;SDS011;15525;45.568;5.448;2023-04-03T13:37:32;10.18;;;7.82;;
28266;SDS011;15525;45.568;5.448;2023-04-03T13:40:04;11.63;;;8.13;;
28266;SDS011;15525;45.568;5.448;2023-04-03T13:42:37;11.23;;;8.15;;
28266;SDS011;15525;45.568;5.448;2023-04-03T13:45:16;9.90;;;7.93;;
28266;SDS011;15525;45.568;5.448;2023-04-03T13:47:49;9.70;;;7.53;;
28266;SDS011;15525;45.568;5.448;2023-04-03T13:50:20;9.95;;;7.88;;
28266;SDS011;15525;45.568;5.448;2023-04-03T13:52:53;8.50;;;7.18;;
28266;SDS011;15525;45.568;5.448;2023-04-03T13:55:29;13.43;;;9.27;;
28266;SDS011;15525;45.568;5.448;2023-04-03T13:57:59;10.27;;;8.55;;
28266;SDS011;15525;45.568;5.448;2023-04-03T14:00:50;10.30;;;8.13;;
28266;SDS011;15525;45.568;5.448;2023-04-03T14:05:57;11.25;;;8.27;;
28266;SDS011;15525;45.568;5.448;2023-04-03T14:08:24;10.43;;;7.78;;
28266;SDS011;15525;45.568;5.448;2023-04-03T14:10:50;9.15;;;7.95;;
28266;SDS011;15525;45.568;5.448;2023-04-03T14:13:17;10.45;;;7.55;;
28266;SDS011;15525;45.568;5.448;2023-04-03T14:15:45;12.02;;;8.30;;
28266;SDS011;15525;45.568;5.448;2023-04-03T14:18:14;10.95;;;8.13;;
28266;SDS011;15525;45.568;5.448;2023-04-03T14:20:42;10.65;;;7.70;;
28266;SDS011;15525;45.568;5.448;2023-04-03T14:23:08;11.63;;;8.10;;
28266;SDS011;15525;45.568;5.448;2023-04-03T14:25:34;11.13;;;7.25;;
28266;SDS011;15525;45.568;5.448;2023-04-03T14:27:59;9.18;;;7.40;;
28266;SDS011;15525;45.568;5.448;2023-04-03T14:30:28;11.13;;;7.53;;
28266;SDS011;15525;45.568;5.448;2023-04-03T14:32:57;10.95;;;7.38;;
28266;SDS011;15525;45.568;5.448;2023-04-03T14:35:22;8.98;;;6.50;;
28266;SDS011;15525;45.568;5.448;2023-04-03T14:37:49;9.20;;;6.93;;
28266;SDS011;15525;45.568;5.448;2023-04-03T14:40:18;10.52;;;7.57;;
28266;SDS011;15525;45.568;5.448;2023-04-03T14:42:47;8.25;;;6.40;;
28266;SDS011;15525;45.568;5.448;2023-04-03T14:45:14;10.90;;;7.30;;
28266;SDS011;15525;45.568;5.448;2023-04-03T14:47:51;8.93;;;6.88;;
28266;SDS011;15525;45.568;5.448;2023-04-03T14:50:19;11.27;;;6.95;;
28266;SDS011;15525;45.568;5.448;2023-04-03T14:52:47;9.77;;;6.72;;
28266;SDS011;15525;45.568;5.448;2023-04-03T14:55:15;10.63;;;7.47;;
28266;SDS011;15525;45.568;5.448;2023-04-03T14:57:42;9.52;;;7.55;;
28266;SDS011;15525;45.568;5.448;2023-04-03T15:00:16;10.35;;;7.55;;
28266;SDS011;15525;45.568;5.448;2023-04-03T15:02:42;8.77;;;7.22;;
28266;SDS011;15525;45.568;5.448;2023-04-03T15:05:09;8.45;;;6.80;;
28266;SDS011;15525;45.568;5.448;2023-04-03T15:07:39;10.68;;;7.82;;
28266;SDS011;15525;45.568;5.448;2023-04-03T15:12:40;11.15;;;7.85;;
28266;SDS011;15525;45.568;5.448;2023-04-03T15:15:06;8.80;;;7.07;;
28266;SDS011;15525;45.568;5.448;2023-04-03T15:17:32;10.18;;;7.50;;
28266;SDS011;15525;45.568;5.448;2023-04-03T15:19:59;9.65;;;7.50;;
28266;SDS011;15525;45.568;5.448;2023-04-03T15:22:25;9.25;;;7.03;;
28266;SDS011;15525;45.568;5.448;2023-04-03T15:24:50;9.52;;;7.28;;
28266;SDS011;15525;45.568;5.448;2023-04-03T15:27:16;14.93;;;7.55;;
28266;SDS011;15525;45.568;5.448;2023-04-03T15:29:42;8.15;;;6.53;;
28266;SDS011;15525;45.568;5.448;2023-04-03T15:32:09;11.07;;;7.45;;
28266;SDS011;15525;45.568;5.448;2023-04-03T15:34:35;9.00;;;7.13;;
28266;SDS011;15525;45.568;5.448;2023-04-03T15:37:00;10.50;;;7.40;;
28266;SDS011;15525;45.568;5.448;2023-04-03T15:39:26;9.88;;;7.30;;
28266;SDS011;15525;45.568;5.448;2023-04-03T15:41:52;10.63;;;7.15;;
28266;SDS011;15525;45.568;5.448;2023-04-03T15:44:18;10.50;;;6.80;;
28266;SDS011;15525;45.568;5.448;2023-04-03T15:46:44;8.30;;;6.60;;
28266;SDS011;15525;45.568;5.448;2023-04-03T15:49:11;8.98;;;6.88;;
28266;SDS011;15525;45.568;5.448;2023-04-03T15:51:37;8.85;;;6.63;;
28266;SDS011;15525;45.568;5.448;2023-04-03T15:54:02;11.55;;;7.00;;
28266;SDS011;15525;45.568;5.448;2023-04-03T15:56:28;9.00;;;6.93;;
28266;SDS011;15525;45.568;5.448;2023-04-03T15:58:54;7.47;;;6.05;;
28266;SDS011;15525;45.568;5.448;2023-04-03T16:01:19;8.85;;;6.05;;
28266;SDS011;15525;45.568;5.448;2023-04-03T16:03:44;8.10;;;6.00;;
28266;SDS011;15525;45.568;5.448;2023-04-03T16:06:12;8.60;;;6.20;;
28266;SDS011;15525;45.568;5.448;2023-04-03T16:08:41;9.88;;;6.03;;
28266;SDS011;15525;45.568;5.448;2023-04-03T16:11:07;7.85;;;5.70;;
28266;SDS011;15525;45.568;5.448;2023-04-03T16:13:33;7.57;;;6.10;;
28266;SDS011;15525;45.568;5.448;2023-04-03T16:15:59;7.65;;;5.50;;
28266;SDS011;15525;45.568;5.448;2023-04-03T16:18:26;8.40;;;6.22;;
28266;SDS011;15525;45.568;5.448;2023-04-03T16:20:52;6.40;;;5.40;;
28266;SDS011;15525;45.568;5.448;2023-04-03T16:23:18;7.05;;;5.50;;
28266;SDS011;15525;45.568;5.448;2023-04-03T16:25:44;7.18;;;5.53;;
28266;SDS011;15525;45.568;5.448;2023-04-03T16:28:11;8.27;;;5.72;;